Terminal Aerodrome Forecast
Issued by NWS Lake Charles, LA

Home | Current Version | Previous Version | Text Only | Print | Product List | Glossary On
Versions: 1 2 3 4 5 6 7 8 9 10 11 12 13 14 15 16 17 18 19 20 21 22 23 24
000
FTUS44 KLCH 192124 AAB
TAFBPT
TAF AMD
KBPT 192124Z 1921/2018 14015G20KT P6SM BKN016
     FM200100 13010KT 5SM BR OVC015
     FM200400 13008KT 4SM BR OVC006
     FM200600 13007KT 2SM -RA BR OVC005
     FM201600 14007KT P6SM -RA OVC017=

USA.gov is the U.S. government's official web portal to all federal, state and local government web resources and services.